Time;durP1;ratioP1;P1;durP2;ratioP2;P2;SDS_P1;SDS_P2;PMS_P1;PMS_P2;Temp;Humidity;BMP_temperature;BMP_pressure;BME280_temperature;BME280_humidity;BME280_pressure;Samples;Min_cycle;Max_cycle;Signal;HPM_P1;HPM_P2
2021/08/26 00:00:06;;;;;;;12.32;7.78;;;15.60;99.90;;;;;;4964335;28;20118;-94
2021/08/26 00:05:50;;;;;;;16.98;9.75;;;15.60;99.90;;;;;;4930977;29;20036;-96
2021/08/26 00:08:18;;;;;;;16.45;10.13;;;15.60;99.90;;;;;;4931526;29;20043;-95
2021/08/26 00:10:45;;;;;;;15.25;10.02;;;15.60;99.90;;;;;;4927423;29;20035;-96
2021/08/26 00:13:11;;;;;;;17.50;9.82;;;15.60;99.90;;;;;;4909758;29;20073;-95
2021/08/26 00:15:46;;;;;;;20.77;10.98;;;15.60;99.90;;;;;;4906917;29;20060;-94
2021/08/26 00:18:13;;;;;;;16.00;9.77;;;15.50;99.90;;;;;;4922342;29;20553;-96
2021/08/26 00:20:39;;;;;;;16.73;9.35;;;15.50;99.90;;;;;;4924221;29;20051;-94
2021/08/26 00:23:05;;;;;;;17.95;9.75;;;15.50;99.90;;;;;;4926369;29;20032;-95
2021/08/26 00:25:31;;;;;;;14.00;8.93;;;15.50;99.90;;;;;;4925548;29;20061;-95
2021/08/26 00:27:57;;;;;;;14.27;8.65;;;15.40;99.90;;;;;;4943186;29;20032;-96
2021/08/26 00:30:23;;;;;;;14.30;8.18;;;15.50;99.90;;;;;;4929687;29;20092;-95
2021/08/26 00:32:49;;;;;;;14.05;8.70;;;15.50;99.90;;;;;;4925338;29;20139;-95
2021/08/26 00:35:15;;;;;;;14.18;8.02;;;15.50;99.90;;;;;;4924611;29;20071;-95
2021/08/26 00:37:40;;;;;;;12.15;7.60;;;15.40;99.90;;;;;;4925248;29;20031;-95
2021/08/26 00:40:06;;;;;;;15.73;7.60;;;15.40;99.90;;;;;;4970770;28;20408;-96
2021/08/26 00:42:33;;;;;;;14.38;8.30;;;15.40;99.90;;;;;;4970782;28;20026;-95
2021/08/26 00:44:59;;;;;;;13.07;7.60;;;15.40;99.90;;;;;;4971724;28;20111;-96
2021/08/26 00:47:25;;;;;;;15.65;7.45;;;15.40;99.90;;;;;;4971692;28;20117;-96
2021/08/26 00:49:55;;;;;;;12.75;7.38;;;15.40;99.90;;;;;;4971903;28;20023;-96
2021/08/26 00:52:25;;;;;;;10.57;6.55;;;15.40;99.90;;;;;;4980805;28;20095;-95
2021/08/26 00:54:51;;;;;;;11.88;6.93;;;15.40;99.90;;;;;;4971595;28;20027;-95
2021/08/26 00:57:21;;;;;;;11.48;7.07;;;15.50;99.90;;;;;;4970029;28;20031;-96
2021/08/26 00:59:47;;;;;;;16.90;7.95;;;15.50;99.90;;;;;;4990470;28;20083;-96
2021/08/26 01:02:36;;;;;;;11.05;6.53;;;15.50;99.90;;;;;;4992607;28;20031;-96
2021/08/26 01:05:28;;;;;;;10.95;6.78;;;15.50;99.90;;;;;;4971641;28;20022;-96
2021/08/26 01:08:02;;;;;;;13.00;7.75;;;15.50;99.90;;;;;;4977962;28;20019;-96
2021/08/26 01:10:30;;;;;;;9.95;6.50;;;15.50;99.90;;;;;;4978711;28;20054;-96
2021/08/26 01:12:58;;;;;;;9.68;6.20;;;15.50;99.90;;;;;;4973723;28;20027;-96
2021/08/26 01:15:26;;;;;;;12.55;7.18;;;15.50;99.90;;;;;;4959428;28;20078;-96
2021/08/26 01:17:53;;;;;;;16.20;7.47;;;15.50;99.90;;;;;;4990383;28;20023;-96
2021/08/26 01:20:18;;;;;;;11.50;6.50;;;15.50;99.90;;;;;;4970112;28;20018;-96
2021/08/26 01:22:45;;;;;;;11.93;6.95;;;15.50;99.90;;;;;;4973272;28;20034;-96
2021/08/26 01:25:18;;;;;;;10.02;6.22;;;15.50;99.90;;;;;;4991923;28;20034;-96
2021/08/26 01:27:54;;;;;;;8.93;5.93;;;15.40;99.90;;;;;;4987317;28;20113;-95
2021/08/26 01:30:25;;;;;;;10.85;6.22;;;15.40;99.90;;;;;;4971290;28;20112;-96
2021/08/26 01:32:54;;;;;;;9.02;5.78;;;15.50;99.90;;;;;;4969394;28;20066;-95
2021/08/26 01:35:21;;;;;;;10.73;6.38;;;15.50;99.90;;;;;;4973467;28;20039;-95
2021/08/26 01:37:49;;;;;;;11.07;5.70;;;15.50;99.90;;;;;;4970166;28;20019;-96
2021/08/26 01:40:40;;;;;;;11.80;6.72;;;15.50;99.90;;;;;;4972116;28;20037;-96
2021/08/26 01:43:09;;;;;;;;;;;15.40;99.90;;;;;;4973290;28;20042;-95
2021/08/26 01:45:36;;;;;;;8.75;5.55;;;15.40;99.90;;;;;;4975517;28;19914;-96
2021/08/26 01:48:02;;;;;;;9.80;6.03;;;15.40;99.90;;;;;;4980741;28;20023;-95
2021/08/26 01:50:28;;;;;;;13.73;6.80;;;15.40;99.90;;;;;;4981736;28;20035;-96
2021/08/26 01:52:55;;;;;;;9.93;6.50;;;15.50;99.90;;;;;;4974830;28;20098;-95
2021/08/26 01:55:21;;;;;;;8.68;5.93;;;15.50;99.90;;;;;;4974998;28;20039;-96
2021/08/26 01:57:49;;;;;;;11.52;6.25;;;15.50;99.90;;;;;;4990768;28;20527;-96
2021/08/26 02:00:20;;;;;;;9.02;5.78;;;15.50;99.90;;;;;;4976320;28;20030;-96
2021/08/26 02:02:50;;;;;;;7.45;4.82;;;15.40;99.90;;;;;;4973065;28;20054;-96
2021/08/26 02:05:17;;;;;;;8.27;5.07;;;15.40;99.90;;;;;;4973130;28;20066;-96
2021/08/26 02:07:59;;;;;;;10.65;4.90;;;15.50;99.90;;;;;;4974522;28;20489;-96
2021/08/26 02:10:25;;;;;;;7.93;4.40;;;15.50;99.90;;;;;;4980831;28;20023;-95
2021/08/26 02:12:52;;;;;;;8.05;4.22;;;15.50;99.90;;;;;;4959831;28;20011;-96
2021/08/26 02:15:18;;;;;;;7.40;4.45;;;15.50;99.90;;;;;;4972220;28;20031;-96
2021/08/26 02:17:45;;;;;;;5.47;3.70;;;15.50;99.90;;;;;;4971716;28;20121;-96
2021/08/26 02:20:45;;;;;;;6.72;4.13;;;15.50;99.90;;;;;;4956993;28;20034;-95
2021/08/26 02:23:13;;;;;;;5.70;4.05;;;15.50;99.90;;;;;;4976132;28;20115;-96
2021/08/26 02:25:41;;;;;;;7.43;4.10;;;15.50;99.90;;;;;;4970540;28;20031;-96
2021/08/26 02:28:11;;;;;;;5.15;3.97;;;15.50;99.90;;;;;;4979157;28;20022;-96
2021/08/26 02:30:39;;;;;;;5.95;3.85;;;15.50;99.90;;;;;;4947915;28;20037;-96
2021/08/26 02:33:10;;;;;;;5.65;3.65;;;15.40;99.90;;;;;;4963538;28;20053;-96
2021/08/26 02:35:36;;;;;;;4.57;3.33;;;15.40;99.90;;;;;;4972135;28;20050;-96
2021/08/26 02:38:04;;;;;;;6.07;3.17;;;15.40;99.90;;;;;;4971769;28;20135;-96
2021/08/26 02:40:31;;;;;;;4.30;2.92;;;15.50;99.90;;;;;;4974876;28;20033;-96
2021/08/26 02:43:02;;;;;;;4.10;3.05;;;15.50;99.90;;;;;;4973737;28;20031;-96
2021/08/26 02:45:34;;;;;;;5.45;3.38;;;15.50;99.90;;;;;;4973523;28;20019;-96
2021/08/26 02:47:59;;;;;;;4.30;3.00;;;15.50;99.90;;;;;;4974824;28;20053;-96
2021/08/26 02:50:25;;;;;;;5.72;3.30;;;15.40;99.90;;;;;;4991650;28;20030;-96
2021/08/26 02:52:51;;;;;;;4.38;2.55;;;15.40;99.90;;;;;;4994156;28;20026;-95
2021/08/26 02:55:18;;;;;;;4.35;3.03;;;15.40;99.90;;;;;;4995094;28;20065;-95
2021/08/26 02:57:51;;;;;;;4.78;2.83;;;15.40;99.90;;;;;;4975606;28;20144;-96
2021/08/26 03:00:16;;;;;;;6.43;3.40;;;15.40;99.90;;;;;;4992145;28;20027;-96
2021/08/26 03:02:50;;;;;;;5.32;3.28;;;15.30;99.90;;;;;;4993807;28;20037;-96
2021/08/26 03:05:30;;;;;;;4.28;2.90;;;15.30;99.90;;;;;;4983159;28;20046;-96
2021/08/26 03:07:58;;;;;;;5.60;2.42;;;15.30;99.90;;;;;;5000739;28;20118;-96
2021/08/26 03:10:27;;;;;;;4.45;2.30;;;15.30;99.90;;;;;;4967081;28;20062;-94
2021/08/26 03:13:05;;;;;;;2.88;1.80;;;15.30;99.90;;;;;;5012296;28;20049;-96
2021/08/26 03:15:33;;;;;;;2.83;1.70;;;15.20;99.90;;;;;;5002793;28;20042;-94
2021/08/26 03:18:07;;;;;;;2.13;1.80;;;15.20;99.90;;;;;;4964751;28;20010;-95
2021/08/26 03:20:39;;;;;;;2.25;1.60;;;15.20;99.90;;;;;;5012508;28;20026;-95
2021/08/26 03:23:09;;;;;;;2.53;1.75;;;15.20;99.90;;;;;;4994990;28;20036;-96
2021/08/26 03:25:35;;;;;;;4.15;1.50;;;15.10;99.90;;;;;;4996702;28;20022;-95
2021/08/26 03:28:08;;;;;;;3.30;1.25;;;15.10;99.90;;;;;;5017898;28;20014;-96
2021/08/26 03:30:34;;;;;;;1.55;0.95;;;15.10;99.90;;;;;;4990336;28;20031;-96
2021/08/26 03:32:59;;;;;;;2.10;1.00;;;15.10;99.90;;;;;;4998674;28;20056;-95
2021/08/26 03:35:27;;;;;;;1.30;1.08;;;15.10;99.90;;;;;;4997631;28;20030;-95
2021/08/26 03:37:56;;;;;;;1.58;1.05;;;15.10;99.90;;;;;;4998267;28;20037;-95
2021/08/26 03:40:23;;;;;;;3.95;0.98;;;15.10;99.90;;;;;;5003346;28;20050;-96
2021/08/26 03:42:48;;;;;;;2.72;1.50;;;15.10;99.90;;;;;;4994258;28;20109;-95
2021/08/26 03:45:15;;;;;;;1.38;0.95;;;15.10;99.90;;;;;;4995953;28;20550;-96
2021/08/26 03:47:42;;;;;;;1.60;1.15;;;15.10;99.90;;;;;;5012431;28;20027;-96
2021/08/26 03:50:14;;;;;;;2.15;1.10;;;15.10;99.90;;;;;;4992531;28;20045;-95
2021/08/26 03:52:40;;;;;;;1.38;1.10;;;15.10;99.90;;;;;;4990857;28;20026;-96
2021/08/26 03:55:07;;;;;;;2.28;1.10;;;15.10;99.90;;;;;;4988605;28;20102;-95
2021/08/26 03:57:34;;;;;;;1.20;1.10;;;15.00;99.90;;;;;;4988384;28;20039;-96
2021/08/26 04:00:01;;;;;;;2.40;1.13;;;15.10;99.90;;;;;;4991295;28;20069;-96
2021/08/26 04:02:27;;;;;;;2.05;1.23;;;15.10;99.90;;;;;;4973843;28;20034;-96
2021/08/26 04:04:53;;;;;;;1.23;0.90;;;15.00;99.90;;;;;;4993866;28;20018;-94
2021/08/26 04:07:19;;;;;;;1.80;1.00;;;15.10;99.90;;;;;;4990449;28;20440;-94
2021/08/26 04:09:45;;;;;;;1.00;0.90;;;15.00;99.90;;;;;;4991225;28;20042;-96
2021/08/26 04:12:12;;;;;;;2.22;1.13;;;15.00;99.90;;;;;;4990975;28;20034;-96
2021/08/26 04:14:38;;;;;;;1.15;1.00;;;15.00;99.90;;;;;;4990979;28;20026;-95
2021/08/26 04:17:14;;;;;;;2.53;1.00;;;15.00;99.90;;;;;;4996049;28;20042;-96
2021/08/26 04:19:40;;;;;;;1.15;0.80;;;15.00;99.90;;;;;;4981937;28;20027;-96
2021/08/26 04:22:08;;;;;;;1.17;0.70;;;15.00;99.90;;;;;;4992126;28;20550;-95
2021/08/26 04:24:38;;;;;;;1.52;0.80;;;15.00;99.90;;;;;;4993834;28;20029;-95
2021/08/26 04:27:04;;;;;;;1.27;1.00;;;14.90;99.90;;;;;;4992032;28;20026;-96
2021/08/26 04:29:32;;;;;;;2.35;1.10;;;14.90;99.90;;;;;;4993066;28;20042;-94
2021/08/26 04:31:58;;;;;;;0.90;0.70;;;14.90;99.90;;;;;;4990815;28;20038;-96
2021/08/26 04:34:27;;;;;;;0.80;0.80;;;14.80;99.90;;;;;;4991718;28;20038;-96
2021/08/26 04:36:53;;;;;;;1.05;0.70;;;14.80;99.90;;;;;;4993690;28;20042;-94
2021/08/26 04:39:19;;;;;;;1.67;0.75;;;14.80;99.90;;;;;;4991159;28;20022;-95
2021/08/26 04:41:46;;;;;;;0.73;0.60;;;14.80;99.90;;;;;;4976571;28;20061;-96
2021/08/26 04:44:26;;;;;;;1.40;0.75;;;14.80;99.90;;;;;;5003711;28;20082;-95
2021/08/26 04:46:52;;;;;;;2.40;0.98;;;14.70;99.90;;;;;;4977750;28;20005;-95
2021/08/26 04:49:18;;;;;;;2.20;0.90;;;14.70;99.90;;;;;;4973013;28;20038;-96
2021/08/26 04:51:45;;;;;;;2.50;0.50;;;14.70;99.90;;;;;;4969914;28;20053;-95
2021/08/26 04:54:12;;;;;;;1.70;0.90;;;14.70;99.90;;;;;;4969716;28;20038;-95
2021/08/26 04:56:39;;;;;;;2.03;0.77;;;14.70;99.90;;;;;;4969022;28;20106;-95
2021/08/26 04:59:04;;;;;;;0.68;0.68;;;14.60;99.90;;;;;;4968064;29;20047;-96
2021/08/26 05:01:30;;;;;;;1.05;0.95;;;14.60;99.90;;;;;;4974309;28;20023;-95
2021/08/26 05:03:57;;;;;;;1.00;0.90;;;14.60;99.90;;;;;;4969680;28;20030;-96
2021/08/26 05:06:26;;;;;;;0.95;0.80;;;14.50;99.90;;;;;;4966921;28;20115;-95
2021/08/26 05:08:55;;;;;;;1.50;0.60;;;14.50;99.90;;;;;;4969443;28;20086;-95
2021/08/26 05:11:21;;;;;;;1.17;0.80;;;14.50;99.90;;;;;;4970399;28;20038;-95
2021/08/26 05:13:47;;;;;;;3.08;0.85;;;14.50;99.90;;;;;;4969221;28;20027;-96
2021/08/26 05:16:14;;;;;;;1.05;0.85;;;14.50;99.90;;;;;;4967868;28;20040;-95
2021/08/26 05:18:40;;;;;;;1.52;0.85;;;14.50;99.90;;;;;;4968736;28;20023;-96
2021/08/26 05:21:06;;;;;;;1.10;0.90;;;14.40;99.90;;;;;;4967229;28;20078;-96
2021/08/26 05:23:32;;;;;;;4.10;1.00;;;14.40;99.90;;;;;;4971974;28;20023;-96
2021/08/26 05:25:57;;;;;;;4.32;0.93;;;14.40;99.90;;;;;;4976675;28;20038;-96
2021/08/26 05:28:23;;;;;;;2.17;1.08;;;14.30;99.90;;;;;;4981068;28;20025;-95
2021/08/26 05:30:49;;;;;;;2.97;1.35;;;14.20;99.90;;;;;;4977306;28;20066;-95
2021/08/26 05:33:15;;;;;;;2.75;0.80;;;14.30;99.90;;;;;;4969519;28;20534;-96
2021/08/26 05:35:41;;;;;;;2.28;1.20;;;14.30;99.90;;;;;;4968778;28;20046;-96
2021/08/26 05:38:06;;;;;;;2.28;1.58;;;14.20;99.90;;;;;;4966114;28;20027;-96
2021/08/26 05:40:32;;;;;;;6.15;1.70;;;14.30;99.90;;;;;;4964925;28;20039;-96
2021/08/26 05:43:02;;;;;;;3.70;1.85;;;14.20;99.90;;;;;;4967572;28;20031;-95
2021/08/26 05:45:27;;;;;;;4.15;1.80;;;14.20;99.90;;;;;;4966284;28;20485;-95
2021/08/26 05:47:56;;;;;;;9.10;2.72;;;14.20;99.90;;;;;;4965599;28;20035;-96
2021/08/26 05:50:23;;;;;;;4.53;2.10;;;14.20;99.90;;;;;;4967344;28;20059;-96
2021/08/26 05:52:50;;;;;;;6.30;2.47;;;14.20;99.90;;;;;;4967570;28;20050;-95
2021/08/26 05:55:19;;;;;;;10.60;2.60;;;14.20;99.90;;;;;;4969010;28;20067;-96
2021/08/26 05:57:49;;;;;;;7.00;2.55;;;14.10;99.90;;;;;;4968409;28;20145;-96
2021/08/26 06:00:16;;;;;;;5.33;2.00;;;14.10;99.90;;;;;;4967703;28;20039;-96
2021/08/26 06:02:42;;;;;;;10.38;2.42;;;14.10;99.90;;;;;;4972109;28;20063;-96
2021/08/26 06:05:08;;;;;;;6.35;2.72;;;14.10;99.90;;;;;;4980922;28;20074;-96
2021/08/26 06:07:34;;;;;;;9.10;2.65;;;14.10;99.90;;;;;;4975811;28;20035;-96
2021/08/26 06:10:07;;;;;;;6.32;2.58;;;14.10;99.90;;;;;;4975883;28;20037;-96
2021/08/26 06:12:45;;;;;;;6.15;2.55;;;14.10;99.90;;;;;;4958209;28;20026;-96
2021/08/26 06:18:06;;;;;;;11.63;3.47;;;14.20;99.90;;;;;;4953253;29;20032;-95
2021/08/26 06:20:34;;;;;;;8.57;2.60;;;14.20;99.90;;;;;;4959638;29;20036;-96
2021/08/26 06:28:27;;;;;;;6.60;2.47;;;14.20;99.90;;;;;;4967305;28;20038;-96
2021/08/26 06:30:56;;;;;;;8.35;2.50;;;14.20;99.90;;;;;;4986042;28;20007;-96
2021/08/26 06:33:27;;;;;;;6.57;2.08;;;14.20;99.90;;;;;;4995820;28;20031;-96
2021/08/26 06:35:54;;;;;;;8.52;2.67;;;14.30;99.90;;;;;;4973988;28;20043;-96
2021/08/26 06:38:26;;;;;;;7.90;2.63;;;14.20;99.90;;;;;;4966846;29;20055;-96
2021/08/26 06:41:15;;;;;;;8.35;2.95;;;14.20;99.90;;;;;;4968307;28;20046;-96
2021/08/26 06:43:47;;;;;;;7.15;2.60;;;14.20;99.90;;;;;;4988357;28;20027;-95
2021/08/26 06:46:13;;;;;;;8.73;3.03;;;14.30;99.90;;;;;;4970164;29;20019;-96
2021/08/26 06:49:12;;;;;;;11.18;3.00;;;14.30;99.90;;;;;;4953153;29;20043;-96
2021/08/26 06:51:54;;;;;;;11.85;3.20;;;14.30;99.90;;;;;;4917779;28;20063;-96
2021/08/26 06:54:29;;;;;;;14.68;3.15;;;14.30;99.90;;;;;;4961861;28;20065;-96
2021/08/26 06:56:56;;;;;;;6.05;2.90;;;14.40;99.90;;;;;;4962093;28;20035;-96
2021/08/26 06:59:24;;;;;;;14.77;3.42;;;14.40;99.90;;;;;;4974335;28;20073;-96
2021/08/26 07:01:54;;;;;;;13.00;3.63;;;14.50;99.90;;;;;;4978698;28;20039;-96
2021/08/26 07:04:20;;;;;;;20.90;4.20;;;14.50;99.90;;;;;;4954186;29;20020;-96
2021/08/26 07:06:50;;;;;;;16.52;4.38;;;14.60;99.90;;;;;;4991123;28;20031;-96
2021/08/26 07:12:38;;;;;;;14.93;4.05;;;14.60;99.90;;;;;;4999745;28;20055;-96
2021/08/26 07:15:24;;;;;;;13.18;3.53;;;14.60;99.90;;;;;;4891585;29;20065;-96
2021/08/26 07:18:03;;;;;;;15.35;3.80;;;14.50;99.90;;;;;;4884312;29;20017;-96
2021/08/26 07:20:32;;;;;;;13.00;4.32;;;14.50;99.90;;;;;;4877681;29;20053;-96
2021/08/26 07:23:08;;;;;;;13.07;3.95;;;14.60;99.90;;;;;;4871229;29;20017;-96
2021/08/26 07:25:37;;;;;;;14.73;3.70;;;14.60;99.90;;;;;;4878051;29;20069;-95
2021/08/26 07:28:06;;;;;;;13.77;3.40;;;14.60;99.90;;;;;;4876219;29;20026;-96
2021/08/26 07:30:35;;;;;;;14.43;3.55;;;14.60;99.90;;;;;;4876137;29;20029;-96
2021/08/26 07:33:01;;;;;;;15.52;3.30;;;14.60;99.90;;;;;;4874386;29;20041;-96
2021/08/26 07:35:27;;;;;;;12.57;3.42;;;14.60;99.90;;;;;;4871112;29;20025;-96
2021/08/26 07:37:53;;;;;;;15.05;3.78;;;14.60;99.90;;;;;;4871909;29;20034;-95
2021/08/26 07:40:20;;;;;;;17.13;3.78;;;14.70;99.90;;;;;;4864099;29;20096;-96
2021/08/26 07:42:45;;;;;;;11.25;3.70;;;14.70;99.90;;;;;;4857405;29;20043;-96
2021/08/26 07:45:14;;;;;;;17.15;4.07;;;14.60;99.90;;;;;;4871376;29;20136;-96
2021/08/26 07:47:40;;;;;;;11.32;3.70;;;14.60;99.90;;;;;;4855649;29;20041;-96
2021/08/26 07:50:12;;;;;;;12.18;3.20;;;14.60;99.90;;;;;;4868180;29;20040;-95
2021/08/26 07:52:39;;;;;;;13.90;4.03;;;14.70;99.90;;;;;;4936542;29;20500;-95
2021/08/26 07:55:11;;;;;;;9.75;3.60;;;14.70;99.90;;;;;;4966988;28;20023;-96
2021/08/26 07:57:42;;;;;;;10.55;3.85;;;14.70;99.90;;;;;;4951803;28;20110;-96
2021/08/26 08:00:11;;;;;;;11.88;3.05;;;14.70;99.90;;;;;;4978437;28;20118;-96
2021/08/26 08:02:37;;;;;;;13.05;3.33;;;14.70;99.90;;;;;;4965608;28;20132;-96
2021/08/26 08:05:04;;;;;;;13.95;3.63;;;14.80;99.90;;;;;;4960095;28;20042;-96
2021/08/26 08:07:44;;;;;;;11.48;3.40;;;14.80;99.90;;;;;;4958426;28;20035;-96
2021/08/26 08:10:23;;;;;;;11.48;3.80;;;14.90;99.90;;;;;;4966345;28;20035;-96
2021/08/26 08:12:56;;;;;;;9.85;3.35;;;15.00;99.90;;;;;;4969109;28;20062;-96
2021/08/26 08:16:04;;;;;;;12.32;3.50;;;15.00;99.90;;;;;;4982645;28;20046;-96
2021/08/26 08:18:32;;;;;;;10.95;3.08;;;15.00;99.90;;;;;;4982036;28;20041;-96
2021/08/26 08:20:58;;;;;;;15.63;3.40;;;15.10;99.90;;;;;;4958958;28;20058;-96
2021/08/26 08:23:23;;;;;;;13.88;3.78;;;15.10;99.90;;;;;;4967845;28;20027;-96
2021/08/26 08:25:49;;;;;;;12.35;3.67;;;15.20;99.90;;;;;;4960687;28;20027;-95
2021/08/26 08:28:42;;;;;;;11.55;2.90;;;15.20;99.90;;;;;;4982338;28;20022;-96
2021/08/26 08:31:11;;;;;;;14.02;4.90;;;15.20;99.90;;;;;;4952584;28;20042;-95
2021/08/26 08:33:38;;;;;;;13.68;3.67;;;15.20;99.90;;;;;;4958269;28;20030;-94
2021/08/26 08:36:04;;;;;;;16.13;4.82;;;15.20;99.90;;;;;;4972646;28;20107;-96
2021/08/26 08:38:32;;;;;;;12.95;3.47;;;15.20;99.90;;;;;;4969516;28;20039;-96
2021/08/26 08:43:35;;;;;;;16.08;3.92;;;15.30;99.90;;;;;;4976300;23;20372;-96
2021/08/26 08:46:07;;;;;;;13.95;3.70;;;15.40;99.90;;;;;;5241130;23;20150;-94
2021/08/26 08:54:46;;;;;;;14.20;3.80;;;15.70;99.90;;;;;;4948823;28;20046;-95
2021/08/26 08:57:17;;;;;;;8.43;3.05;;;15.80;99.90;;;;;;5176794;23;20225;-95
2021/08/26 08:59:50;;;;;;;14.45;3.13;;;15.80;99.90;;;;;;4953675;28;20055;-95
2021/08/26 09:13:39;;;;;;;9.35;3.30;;;16.10;99.90;;;;;;4893613;27;20041;-96
2021/08/26 09:26:38;;;;;;;14.73;3.08;;;16.50;98.60;;;;;;5692038;23;20028;-96
2021/08/26 09:29:08;;;;;;;17.55;3.88;;;16.50;98.70;;;;;;5246960;23;20063;-96
2021/08/26 09:31:33;;;;;;;6.97;2.53;;;16.60;98.40;;;;;;4935372;29;20031;-94
2021/08/26 09:34:19;;;;;;;11.55;3.85;;;16.70;98.20;;;;;;4958113;29;20127;-95
2021/08/26 09:36:57;;;;;;;10.02;2.75;;;16.90;98.00;;;;;;5089599;23;20070;-96
2021/08/26 09:39:42;;;;;;;7.68;3.45;;;17.00;97.60;;;;;;5490785;23;20047;-96
2021/08/26 09:42:10;;;;;;;7.40;2.78;;;17.10;97.00;;;;;;4952650;29;20033;-96
2021/08/26 09:47:12;;;;;;;10.82;2.88;;;17.30;96.50;;;;;;5226739;23;20802;-96
2021/08/26 11:01:53;;;;;;;5.93;1.98;;;17.60;92.70;;;;;;5344792;23;20055;-96
2021/08/26 11:04:30;;;;;;;6.07;2.22;;;17.70;92.20;;;;;;4919910;29;20047;-95
2021/08/26 11:06:57;;;;;;;8.65;1.95;;;17.80;91.80;;;;;;4945115;29;20042;-94
